Time;durP1;ratioP1;P1;durP2;ratioP2;P2;SDS_P1;SDS_P2;PMS_P1;PMS_P2;Temp;Humidity;BMP_temperature;BMP_pressure;BME280_temperature;BME280_humidity;BME280_pressure;Samples;Min_cycle;Max_cycle;Signal;HPM_P1;HPM_P2
2022/07/16 00:03:51;;;;;;;14.18;2.38;;;17.80;99.90;;;;;;5054903;28;20730;-85
2022/07/16 00:06:16;;;;;;;4.93;1.85;;;17.80;99.90;;;;;;5055409;28;20174;-81
2022/07/16 00:08:42;;;;;;;2.95;1.67;;;17.80;99.90;;;;;;5055421;28;20531;-81
2022/07/16 00:11:08;;;;;;;1.88;1.58;;;17.80;99.90;;;;;;5037241;28;20282;-80
2022/07/16 00:13:34;;;;;;;3.72;1.73;;;18.00;99.90;;;;;;5037282;28;20179;-82
2022/07/16 00:15:59;;;;;;;6.82;1.33;;;18.10;99.90;;;;;;5054828;28;20183;-82
2022/07/16 00:21:09;;;;;;;4.57;1.58;;;17.90;99.90;;;;;;5055024;28;20290;-81
2022/07/16 00:23:34;;;;;;;6.72;1.75;;;17.70;99.90;;;;;;5055167;28;20203;-82
2022/07/16 00:26:00;;;;;;;8.05;1.40;;;17.60;99.90;;;;;;5036983;28;20262;-82
2022/07/16 00:28:26;;;;;;;2.15;1.60;;;17.50;99.90;;;;;;5054626;28;20612;-81
2022/07/16 00:30:51;;;;;;;2.05;1.35;;;17.60;99.90;;;;;;5037011;28;20225;-81
2022/07/16 00:33:17;;;;;;;1.67;1.30;;;17.70;99.90;;;;;;5054898;28;20255;-81
2022/07/16 00:35:42;;;;;;;5.07;2.03;;;17.60;99.90;;;;;;5036739;28;20209;-80
2022/07/16 00:38:08;;;;;;;1.88;1.65;;;17.50;99.90;;;;;;5054550;28;20193;-84
2022/07/16 00:40:34;;;;;;;3.72;2.00;;;17.40;99.90;;;;;;5054469;28;20777;-82
2022/07/16 00:43:01;;;;;;;3.70;1.75;;;17.40;99.90;;;;;;5037215;28;20178;-80
2022/07/16 00:45:27;;;;;;;3.20;1.92;;;17.40;99.90;;;;;;5068968;28;20159;-80
2022/07/16 00:47:52;;;;;;;2.20;1.75;;;17.40;99.90;;;;;;5077082;28;20154;-81
2022/07/16 00:50:18;;;;;;;2.63;1.92;;;17.40;99.90;;;;;;5078840;28;20179;-84
2022/07/16 00:52:44;;;;;;;10.20;2.15;;;17.50;99.90;;;;;;5057631;28;20183;-80
2022/07/16 00:55:10;;;;;;;3.95;1.83;;;17.60;99.90;;;;;;5036604;28;20217;-84
2022/07/16 00:57:36;;;;;;;1.90;1.60;;;17.60;99.90;;;;;;5054453;28;20580;-83
2022/07/16 01:00:04;;;;;;;4.93;1.58;;;17.70;99.90;;;;;;5054267;28;20683;-81
2022/07/16 01:02:29;;;;;;;2.65;1.90;;;17.70;99.90;;;;;;5054174;28;20194;-81
2022/07/16 01:04:55;;;;;;;6.20;3.88;;;17.70;99.90;;;;;;5036247;28;20219;-82
2022/07/16 01:07:22;;;;;;;6.75;1.70;;;17.70;99.90;;;;;;5054196;28;20242;-83
2022/07/16 01:09:48;;;;;;;3.33;1.48;;;17.60;99.90;;;;;;5053774;28;20190;-81
2022/07/16 01:12:15;;;;;;;2.58;1.63;;;17.70;99.90;;;;;;5035839;28;20170;-83
2022/07/16 01:14:42;;;;;;;4.75;1.67;;;17.70;99.90;;;;;;5053386;28;20230;-84
2022/07/16 01:17:08;;;;;;;2.75;1.52;;;17.50;99.90;;;;;;5052870;28;20254;-80
2022/07/16 01:19:33;;;;;;;1.83;1.73;;;17.50;99.90;;;;;;5054121;28;20310;-80
2022/07/16 01:22:00;;;;;;;4.82;1.42;;;17.40;99.90;;;;;;5035644;28;20210;-80
2022/07/16 01:24:26;;;;;;;15.60;2.10;;;17.40;99.90;;;;;;5053535;28;20167;-81
2022/07/16 01:26:52;;;;;;;7.88;1.30;;;17.30;99.90;;;;;;5053812;28;20534;-81
2022/07/16 01:29:17;;;;;;;4.70;1.65;;;17.40;99.90;;;;;;5053470;28;20166;-81
2022/07/16 01:31:43;;;;;;;8.85;1.83;;;17.30;99.90;;;;;;5035703;28;20171;-81
2022/07/16 01:34:26;;;;;;;5.00;1.70;;;17.10;99.90;;;;;;5035670;28;20171;-80
2022/07/16 01:36:57;;;;;;;5.20;1.70;;;17.10;99.90;;;;;;5053335;28;20171;-82
2022/07/16 01:39:24;;;;;;;7.03;2.03;;;17.20;99.90;;;;;;5053031;28;20285;-81
2022/07/16 01:41:55;;;;;;;3.05;1.50;;;17.30;99.90;;;;;;5053163;28;20163;-85
2022/07/16 01:44:23;;;;;;;7.03;2.05;;;17.30;99.90;;;;;;5053070;28;20534;-81
2022/07/16 01:46:49;;;;;;;2.70;1.50;;;17.10;99.90;;;;;;5053155;28;20174;-82
2022/07/16 01:49:15;;;;;;;4.45;1.90;;;17.10;99.90;;;;;;5052988;28;20175;-82
2022/07/16 01:51:41;;;;;;;2.35;1.70;;;17.10;99.90;;;;;;5053153;28;20173;-86
2022/07/16 01:54:06;;;;;;;4.95;1.75;;;17.20;99.90;;;;;;5053279;28;20636;-81
2022/07/16 01:56:32;;;;;;;4.35;2.50;;;17.20;99.90;;;;;;5053029;28;20167;-82
2022/07/16 01:58:58;;;;;;;4.97;1.98;;;17.10;99.90;;;;;;5035207;28;20240;-81
2022/07/16 02:01:23;;;;;;;3.63;1.85;;;17.20;99.90;;;;;;5053001;28;20278;-80
2022/07/16 02:03:49;;;;;;;3.42;1.77;;;17.20;99.90;;;;;;5052896;28;20198;-84
2022/07/16 02:06:15;;;;;;;5.45;1.65;;;17.30;99.90;;;;;;5053029;28;20186;-81
2022/07/16 02:08:41;;;;;;;3.17;1.70;;;17.20;99.90;;;;;;5053020;28;20242;-80
2022/07/16 02:11:07;;;;;;;3.65;1.58;;;16.80;99.90;;;;;;5052570;28;20179;-86
2022/07/16 02:13:33;;;;;;;7.38;1.88;;;16.80;99.90;;;;;;5034874;28;20175;-82
2022/07/16 02:15:58;;;;;;;1.63;1.40;;;16.80;99.90;;;;;;5053142;28;20265;-81
2022/07/16 02:18:24;;;;;;;8.55;1.77;;;16.70;99.90;;;;;;5052385;28;20167;-84
2022/07/16 02:20:50;;;;;;;5.07;1.63;;;16.80;99.90;;;;;;5052700;28;20190;-82
2022/07/16 02:23:15;;;;;;;5.93;1.60;;;16.70;99.90;;;;;;5052905;28;20170;-81
2022/07/16 02:25:41;;;;;;;11.23;1.88;;;16.60;99.90;;;;;;5035065;28;20175;-81
2022/07/16 02:28:07;;;;;;;6.28;1.85;;;16.70;99.90;;;;;;5038128;28;20174;-81
2022/07/16 02:30:37;;;;;;;1.48;1.38;;;16.80;99.90;;;;;;5056480;28;20197;-80
2022/07/16 02:33:03;;;;;;;6.57;1.85;;;16.80;99.90;;;;;;5038996;28;20167;-80
2022/07/16 02:35:29;;;;;;;4.68;1.65;;;16.60;99.90;;;;;;5056616;28;20171;-84
2022/07/16 02:37:56;;;;;;;1.52;1.17;;;16.60;99.90;;;;;;5038978;28;20551;-80
2022/07/16 02:40:21;;;;;;;4.20;1.48;;;16.40;99.90;;;;;;5056721;28;20667;-82
2022/07/16 02:42:47;;;;;;;3.05;1.90;;;16.40;99.90;;;;;;5056900;28;20250;-84
2022/07/16 02:45:12;;;;;;;3.05;1.48;;;16.30;99.90;;;;;;5056569;28;20608;-84
2022/07/16 02:47:38;;;;;;;2.13;1.92;;;16.40;99.90;;;;;;5056662;28;20501;-85
2022/07/16 02:50:05;;;;;;;1.90;1.63;;;16.50;99.90;;;;;;5056957;28;20195;-85
2022/07/16 02:52:30;;;;;;;4.15;1.83;;;16.60;99.90;;;;;;5065129;28;20163;-80
2022/07/16 02:54:56;;;;;;;4.22;1.50;;;16.60;99.90;;;;;;5051452;28;20186;-80
2022/07/16 02:57:22;;;;;;;4.93;1.73;;;16.60;99.90;;;;;;5052555;28;20170;-81
2022/07/16 02:59:48;;;;;;;4.25;1.77;;;16.50;99.90;;;;;;5051679;28;20203;-80
2022/07/16 03:02:14;;;;;;;3.65;1.48;;;16.60;99.90;;;;;;5050443;28;20177;-80
2022/07/16 03:04:39;;;;;;;2.75;1.63;;;16.70;99.90;;;;;;5067239;28;20172;-80
2022/07/16 03:07:05;;;;;;;2.67;1.73;;;16.70;99.90;;;;;;5066729;28;20187;-81
2022/07/16 03:09:31;;;;;;;4.00;2.22;;;16.60;99.90;;;;;;5076348;28;20186;-82
2022/07/16 03:11:57;;;;;;;4.60;1.45;;;16.40;99.90;;;;;;5081046;28;20221;-81
2022/07/16 03:14:22;;;;;;;3.85;2.00;;;16.60;99.90;;;;;;5081298;28;20183;-81
2022/07/16 03:16:48;;;;;;;2.08;1.70;;;16.60;99.90;;;;;;5063224;28;20183;-81
2022/07/16 03:19:14;;;;;;;3.15;1.40;;;16.50;99.90;;;;;;5081234;28;20251;-79
2022/07/16 03:21:40;;;;;;;6.15;1.50;;;16.50;99.90;;;;;;5081336;28;20155;-84
2022/07/16 03:24:05;;;;;;;1.63;1.50;;;16.50;99.90;;;;;;5081010;28;20163;-80
2022/07/16 03:26:31;;;;;;;1.98;1.30;;;16.40;99.90;;;;;;5062330;28;20151;-81
2022/07/16 03:28:57;;;;;;;3.50;1.60;;;16.50;99.90;;;;;;5073018;28;20171;-83
2022/07/16 03:31:22;;;;;;;3.65;1.40;;;16.40;99.90;;;;;;5055598;28;20210;-82
2022/07/16 03:33:49;;;;;;;7.50;1.75;;;16.20;99.90;;;;;;5056143;28;20581;-82
2022/07/16 03:36:14;;;;;;;10.45;1.60;;;16.20;99.90;;;;;;5052783;28;20171;-81
2022/07/16 03:39:00;;;;;;;7.28;1.58;;;16.30;99.90;;;;;;5054768;28;20191;-84
2022/07/16 03:41:26;;;;;;;3.53;1.65;;;16.40;99.90;;;;;;5056035;28;20544;-82
2022/07/16 03:43:52;;;;;;;4.50;1.65;;;16.50;99.90;;;;;;5038560;28;20635;-83
2022/07/16 03:46:18;;;;;;;5.95;1.50;;;16.70;99.90;;;;;;5055548;28;20175;-81
2022/07/16 03:48:44;;;;;;;5.32;1.90;;;16.90;99.90;;;;;;5055594;28;20155;-84
2022/07/16 03:51:12;;;;;;;2.55;1.60;;;16.70;99.90;;;;;;5055360;28;20577;-81
2022/07/16 03:53:38;;;;;;;2.08;1.55;;;16.60;99.90;;;;;;5037784;28;20167;-80
2022/07/16 03:56:04;;;;;;;2.08;1.67;;;16.50;99.90;;;;;;5037458;28;20167;-83
2022/07/16 03:58:30;;;;;;;2.90;2.45;;;16.40;99.90;;;;;;5055354;28;20159;-83
2022/07/16 04:00:56;;;;;;;4.20;1.80;;;16.30;99.90;;;;;;5055057;28;20198;-83
2022/07/16 04:03:22;;;;;;;2.97;1.70;;;16.40;99.90;;;;;;5055327;28;20171;-82
2022/07/16 04:05:48;;;;;;;3.63;1.67;;;16.20;99.90;;;;;;5037457;28;20178;-82
2022/07/16 04:08:14;;;;;;;3.22;2.10;;;16.20;99.90;;;;;;5055692;28;20171;-84
2022/07/16 04:10:39;;;;;;;2.20;1.75;;;16.30;99.90;;;;;;5055123;28;20187;-83
2022/07/16 04:13:05;;;;;;;8.95;1.88;;;16.60;99.90;;;;;;5054887;28;20528;-85
2022/07/16 04:15:30;;;;;;;2.67;1.42;;;16.60;99.90;;;;;;5054489;28;20209;-86
2022/07/16 04:17:56;;;;;;;3.33;1.60;;;16.80;99.90;;;;;;5037495;28;20631;-80
2022/07/16 04:20:22;;;;;;;3.92;1.50;;;17.10;99.90;;;;;;5054840;28;20214;-81
2022/07/16 04:22:48;;;;;;;2.50;1.70;;;17.30;99.90;;;;;;5037030;28;20171;-82
2022/07/16 04:25:14;;;;;;;3.20;1.52;;;17.30;99.90;;;;;;5055037;28;20171;-85
2022/07/16 04:27:43;;;;;;;5.30;1.58;;;17.20;99.90;;;;;;5036889;28;20248;-80
2022/07/16 04:30:10;;;;;;;2.08;1.60;;;17.30;99.90;;;;;;5054785;28;20648;-84
2022/07/16 04:32:37;;;;;;;3.25;1.83;;;17.40;99.90;;;;;;5054870;28;20175;-82
2022/07/16 04:35:03;;;;;;;4.95;1.85;;;17.50;99.90;;;;;;5054710;28;20195;-83
2022/07/16 04:37:29;;;;;;;4.45;1.60;;;17.80;99.90;;;;;;5037216;28;20167;-81
2022/07/16 04:39:55;;;;;;;3.17;1.77;;;17.80;99.90;;;;;;5054205;28;20750;-81
2022/07/16 04:42:20;;;;;;;4.97;1.52;;;17.80;99.90;;;;;;5054438;28;20640;-83
2022/07/16 04:44:46;;;;;;;9.52;2.33;;;17.70;99.90;;;;;;5037007;28;20174;-82
2022/07/16 04:47:11;;;;;;;2.53;2.10;;;17.70;99.90;;;;;;5054377;28;20691;-84
2022/07/16 04:49:37;;;;;;;6.05;2.00;;;17.70;99.90;;;;;;5053872;28;20191;-81
2022/07/16 04:52:04;;;;;;;2.25;2.00;;;17.90;99.90;;;;;;5054128;28;20171;-82
2022/07/16 04:54:29;;;;;;;3.20;2.00;;;18.00;99.90;;;;;;5054480;28;20171;-83
2022/07/16 04:56:55;;;;;;;2.63;1.60;;;18.00;99.90;;;;;;5054373;28;20620;-83
2022/07/16 04:59:21;;;;;;;3.42;1.98;;;18.10;99.90;;;;;;5036457;28;20238;-86
2022/07/16 05:01:46;;;;;;;4.45;2.28;;;18.20;99.90;;;;;;5053965;28;20179;-84
2022/07/16 05:04:12;;;;;;;3.05;2.03;;;18.20;99.90;;;;;;5054453;28;20163;-83
2022/07/16 05:06:38;;;;;;;3.05;2.00;;;18.20;99.90;;;;;;5054133;28;20216;-84
2022/07/16 05:09:03;;;;;;;4.22;2.15;;;18.40;99.90;;;;;;5054083;28;20527;-82
2022/07/16 05:11:29;;;;;;;2.13;1.90;;;18.50;99.90;;;;;;5053853;28;20256;-84
2022/07/16 05:13:55;;;;;;;2.33;1.88;;;18.30;99.90;;;;;;5054344;28;20309;-81
2022/07/16 05:16:22;;;;;;;5.78;2.15;;;18.40;99.90;;;;;;5036026;28;20171;-83
2022/07/16 05:18:48;;;;;;;2.67;2.05;;;18.30;99.90;;;;;;5054040;28;20187;-84
2022/07/16 05:21:14;;;;;;;3.20;2.20;;;18.40;99.90;;;;;;5053776;28;20183;-85
2022/07/16 05:23:40;;;;;;;6.78;2.67;;;18.40;99.90;;;;;;5054109;28;20167;-82
2022/07/16 05:26:06;;;;;;;5.72;2.08;;;18.40;99.90;;;;;;5053847;28;20163;-82
2022/07/16 05:28:32;;;;;;;3.22;2.45;;;18.40;99.90;;;;;;5057564;28;20712;-83
2022/07/16 05:30:58;;;;;;;2.47;2.28;;;18.50;99.90;;;;;;5059047;28;20666;-82
2022/07/16 05:33:23;;;;;;;3.15;2.30;;;18.60;99.90;;;;;;5040692;28;20159;-82
2022/07/16 05:35:49;;;;;;;3.47;2.47;;;18.70;99.90;;;;;;5057885;28;20701;-85
2022/07/16 05:38:15;;;;;;;2.42;1.98;;;18.90;99.90;;;;;;5039654;28;20242;-85
2022/07/16 05:40:41;;;;;;;4.03;2.42;;;18.80;99.90;;;;;;5056906;28;20207;-81
2022/07/16 05:43:16;;;;;;;3.50;2.85;;;18.70;99.90;;;;;;5069530;28;20163;-85
2022/07/16 05:45:47;;;;;;;9.07;2.55;;;18.90;99.90;;;;;;5069908;28;20174;-81
2022/07/16 05:48:24;;;;;;;3.10;2.78;;;18.80;99.90;;;;;;5053406;28;20238;-81
2022/07/16 05:50:51;;;;;;;3.17;2.70;;;18.80;99.90;;;;;;5070845;28;20222;-83
2022/07/16 05:53:16;;;;;;;9.77;2.88;;;18.80;99.90;;;;;;5053831;28;20799;-80
2022/07/16 05:55:42;;;;;;;6.63;2.95;;;18.70;99.90;;;;;;5075759;28;20171;-82
2022/07/16 05:58:08;;;;;;;5.25;2.90;;;18.70;99.90;;;;;;5060611;28;20163;-82
2022/07/16 06:00:33;;;;;;;3.88;3.40;;;18.90;99.90;;;;;;5055917;28;20260;-81
2022/07/16 06:02:59;;;;;;;6.45;3.53;;;19.00;99.90;;;;;;5053522;28;20167;-82
2022/07/16 06:05:25;;;;;;;9.00;3.40;;;19.30;99.90;;;;;;5053456;28;20167;-85
2022/07/16 06:07:51;;;;;;;5.53;3.00;;;19.10;99.90;;;;;;5035446;28;20159;-85
2022/07/16 06:10:16;;;;;;;9.25;3.10;;;19.10;99.90;;;;;;5053339;28;20242;-85
2022/07/16 06:12:42;;;;;;;4.63;3.28;;;19.30;99.90;;;;;;5054107;28;20163;-82
2022/07/16 06:15:10;;;;;;;7.25;2.45;;;19.30;99.90;;;;;;5035054;28;20632;-85
2022/07/16 06:17:37;;;;;;;3.95;2.65;;;19.40;99.90;;;;;;5055253;28;20179;-81
2022/07/16 06:20:04;;;;;;;8.68;2.92;;;19.50;99.90;;;;;;5053307;28;20264;-82
2022/07/16 06:22:30;;;;;;;5.95;2.30;;;19.50;99.90;;;;;;5053533;28;20655;-81
2022/07/16 06:24:56;;;;;;;3.63;2.08;;;19.50;99.90;;;;;;5035220;28;20175;-84
2022/07/16 06:27:21;;;;;;;3.42;2.00;;;19.60;99.90;;;;;;5035209;28;20167;-82
2022/07/16 06:29:47;;;;;;;3.45;2.03;;;19.50;99.90;;;;;;5053089;28;20195;-83
2022/07/16 06:32:13;;;;;;;3.22;1.52;;;19.50;99.90;;;;;;5035441;28;20269;-84
2022/07/16 06:34:38;;;;;;;10.35;2.03;;;19.40;99.90;;;;;;5052985;28;20253;-84
2022/07/16 06:37:04;;;;;;;3.45;1.50;;;19.50;99.90;;;;;;5053212;28;20187;-83
2022/07/16 06:39:30;;;;;;;4.57;1.70;;;19.20;99.90;;;;;;5052523;28;20214;-84
2022/07/16 06:41:56;;;;;;;1.92;1.83;;;19.10;99.90;;;;;;5053037;28;20167;-85
2022/07/16 06:44:22;;;;;;;3.13;1.85;;;19.30;99.90;;;;;;5052715;28;20523;-81
2022/07/16 06:46:48;;;;;;;2.88;1.40;;;19.30;99.90;;;;;;5052821;28;20266;-84
2022/07/16 06:49:14;;;;;;;6.57;1.83;;;19.50;99.90;;;;;;5052954;28;20174;-84
2022/07/16 06:51:40;;;;;;;3.90;1.30;;;19.20;99.90;;;;;;5035371;28;20175;-83
2022/07/16 06:54:06;;;;;;;1.55;1.45;;;19.50;99.90;;;;;;5052820;28;20167;-83
2022/07/16 06:56:32;;;;;;;2.17;1.40;;;19.70;99.90;;;;;;5053390;28;20175;-85
2022/07/16 06:58:58;;;;;;;6.43;1.67;;;19.90;99.90;;;;;;5034717;28;20218;-82
2022/07/16 07:01:23;;;;;;;3.13;1.40;;;19.90;99.90;;;;;;5034816;28;20234;-86
2022/07/16 07:03:50;;;;;;;3.92;1.65;;;20.00;99.90;;;;;;5052591;28;20616;-85
2022/07/16 07:06:16;;;;;;;5.72;1.00;;;20.50;99.90;;;;;;5052564;28;20155;-87
2022/07/16 07:08:41;;;;;;;4.35;1.45;;;20.70;99.90;;;;;;5053123;28;20168;-84
2022/07/16 07:11:07;;;;;;;4.18;1.30;;;20.50;99.90;;;;;;5052668;28;20666;-85
2022/07/16 07:13:34;;;;;;;7.93;2.05;;;20.10;99.90;;;;;;5036812;28;20202;-86
2022/07/16 07:16:00;;;;;;;5.75;2.00;;;19.90;99.90;;;;;;5038731;28;20168;-82
2022/07/16 07:18:26;;;;;;;3.50;1.98;;;20.60;99.90;;;;;;5056132;28;20167;-84
2022/07/16 07:20:51;;;;;;;4.50;1.67;;;21.40;99.90;;;;;;5056058;28;20203;-83
2022/07/16 07:23:17;;;;;;;5.68;2.10;;;21.60;99.90;;;;;;5038908;28;20274;-83
2022/07/16 07:25:43;;;;;;;5.25;2.67;;;21.60;99.90;;;;;;5056257;28;20794;-82
2022/07/16 07:28:08;;;;;;;4.75;2.28;;;21.30;99.90;;;;;;5056425;28;20546;-82
2022/07/16 07:30:34;;;;;;;3.28;2.90;;;21.90;99.90;;;;;;5055825;28;20550;-83
2022/07/16 07:33:00;;;;;;;2.47;2.00;;;21.90;99.90;;;;;;5056661;28;20167;-82
2022/07/16 07:35:26;;;;;;;2.20;1.80;;;22.90;99.90;;;;;;5038307;28;20170;-83
2022/07/16 07:37:52;;;;;;;5.45;2.00;;;23.60;99.90;;;;;;5056142;28;20347;-87
2022/07/16 07:40:18;;;;;;;6.80;2.17;;;22.90;99.90;;;;;;5055924;28;20227;-83
2022/07/16 07:42:44;;;;;;;4.00;2.63;;;22.60;99.90;;;;;;5038295;28;20206;-82
2022/07/16 07:45:10;;;;;;;3.35;2.10;;;22.70;99.90;;;;;;5055657;28;20171;-84
2022/07/16 07:47:37;;;;;;;4.93;2.30;;;22.60;99.90;;;;;;5037754;28;20160;-83
2022/07/16 07:50:07;;;;;;;2.22;1.80;;;22.90;99.90;;;;;;5037664;28;20191;-83
2022/07/16 07:52:34;;;;;;;4.50;1.88;;;23.70;99.90;;;;;;5055567;28;20503;-83
2022/07/16 07:54:59;;;;;;;2.42;1.80;;;23.70;99.90;;;;;;5055342;28;20163;-84
2022/07/16 07:57:25;;;;;;;6.60;2.13;;;23.10;99.90;;;;;;5055691;28;20627;-82
2022/07/16 07:59:50;;;;;;;2.40;2.20;;;23.00;99.90;;;;;;5037716;28;20582;-82
2022/07/16 08:02:16;;;;;;;7.07;2.70;;;22.70;99.90;;;;;;5055549;28;20167;-84
2022/07/16 08:04:42;;;;;;;2.65;2.33;;;22.40;99.90;;;;;;5056268;28;20187;-87
2022/07/16 08:07:09;;;;;;;6.97;3.28;;;22.00;99.90;;;;;;5037866;28;20628;-86
2022/07/16 08:09:35;;;;;;;3.28;2.58;;;21.70;99.90;;;;;;5037477;28;20594;-85
2022/07/16 08:12:01;;;;;;;5.65;2.53;;;21.80;99.90;;;;;;5055397;28;20181;-85
2022/07/16 08:14:26;;;;;;;4.00;2.90;;;21.90;99.90;;;;;;5054850;28;20266;-84
2022/07/16 08:16:52;;;;;;;2.50;2.35;;;21.80;99.90;;;;;;5036825;28;20266;-85
2022/07/16 08:19:18;;;;;;;5.75;2.38;;;21.50;99.90;;;;;;5054898;28;20242;-85
2022/07/16 08:21:43;;;;;;;6.63;2.35;;;21.50;99.90;;;;;;5054934;28;20167;-82
2022/07/16 08:26:53;;;;;;;4.40;2.33;;;21.70;99.90;;;;;;5069202;28;20206;-82
2022/07/16 08:29:19;;;;;;;3.47;2.88;;;21.60;99.90;;;;;;5075429;28;20159;-84
2022/07/16 08:31:44;;;;;;;4.72;2.40;;;21.40;99.90;;;;;;5075499;28;20178;-81
2022/07/16 08:34:10;;;;;;;2.95;2.42;;;21.50;99.90;;;;;;5056862;28;20628;-81
2022/07/16 08:36:36;;;;;;;9.10;1.95;;;21.30;99.90;;;;;;5055433;28;20159;-82
2022/07/16 08:39:02;;;;;;;3.20;2.40;;;21.60;99.90;;;;;;5055160;28;20195;-81
2022/07/16 08:41:29;;;;;;;2.95;2.47;;;21.40;99.90;;;;;;5037124;28;20207;-82
2022/07/16 08:43:55;;;;;;;1.58;1.40;;;21.50;99.90;;;;;;5036745;28;20167;-81
2022/07/16 08:46:21;;;;;;;2.50;1.45;;;21.60;99.90;;;;;;5054556;28;20186;-83
2022/07/16 08:48:52;;;;;;;1.20;1.10;;;22.00;99.90;;;;;;5056633;28;20163;-83
2022/07/16 08:51:22;;;;;;;1.35;1.15;;;22.10;99.90;;;;;;5056315;28;20277;-83
2022/07/16 08:53:50;;;;;;;2.78;1.65;;;22.60;99.90;;;;;;5054957;28;20653;-85
2022/07/16 08:56:17;;;;;;;1.63;0.90;;;23.00;99.90;;;;;;5036829;28;20233;-83
2022/07/16 08:58:43;;;;;;;1.48;1.30;;;23.10;99.90;;;;;;5036691;28;20170;-81
2022/07/16 09:01:09;;;;;;;2.30;1.30;;;22.60;99.90;;;;;;5054271;28;20199;-84
2022/07/16 09:03:34;;;;;;;2.45;1.20;;;22.10;99.90;;;;;;5054158;28;20205;-83
2022/07/16 09:06:01;;;;;;;5.20;1.40;;;22.00;99.90;;;;;;5054272;28;20221;-82
2022/07/16 09:08:26;;;;;;;2.28;1.38;;;22.10;99.90;;;;;;5036796;28;20710;-84
2022/07/16 09:10:52;;;;;;;3.90;1.60;;;22.10;99.90;;;;;;5053987;28;20219;-83
2022/07/16 09:13:17;;;;;;;2.05;1.20;;;22.60;99.90;;;;;;5054496;28;20509;-83
2022/07/16 09:15:44;;;;;;;1.30;1.20;;;23.00;99.90;;;;;;5053922;28;20190;-83
2022/07/16 09:18:21;;;;;;;13.65;1.40;;;23.20;99.90;;;;;;5054040;28;20195;-83
2022/07/16 09:20:55;;;;;;;3.53;1.55;;;23.60;99.90;;;;;;5035972;28;20563;-83
2022/07/16 09:23:36;;;;;;;2.53;1.48;;;23.60;99.90;;;;;;5053816;28;20661;-85
2022/07/16 09:26:04;;;;;;;1.63;1.40;;;23.80;99.90;;;;;;5036024;28;20178;-84
2022/07/16 09:28:44;;;;;;;1.50;1.40;;;24.00;99.90;;;;;;5053511;28;20233;-85
2022/07/16 09:31:11;;;;;;;1.90;1.38;;;23.90;99.90;;;;;;5053709;28;20218;-84
2022/07/16 09:33:37;;;;;;;4.57;1.50;;;23.30;99.90;;;;;;5035628;28;20216;-85
2022/07/16 09:36:06;;;;;;;5.40;1.95;;;23.10;99.90;;;;;;5034736;28;20623;-82
2022/07/16 09:38:50;;;;;;;3.80;1.45;;;22.50;99.90;;;;;;5035361;28;20171;-84
2022/07/16 09:41:16;;;;;;;1.80;1.35;;;22.30;99.90;;;;;;5053092;28;20194;-82
2022/07/16 09:43:43;;;;;;;2.55;1.40;;;22.00;99.90;;;;;;5035630;28;20174;-83
2022/07/16 09:46:21;;;;;;;4.75;1.58;;;22.20;99.90;;;;;;5052971;28;20174;-84
2022/07/16 09:48:47;;;;;;;4.25;1.70;;;22.20;99.90;;;;;;5053244;28;20228;-85
2022/07/16 09:51:20;;;;;;;2.58;0.93;;;22.50;99.90;;;;;;5053312;28;20187;-84
2022/07/16 09:53:49;;;;;;;6.78;1.17;;;22.90;99.90;;;;;;5035086;28;20163;-83
2022/07/16 09:56:20;;;;;;;1.05;0.90;;;23.40;99.90;;;;;;5057181;28;20513;-82
2022/07/16 09:59:00;;;;;;;1.35;1.08;;;23.40;99.90;;;;;;5022052;28;20171;-83
2022/07/16 10:01:26;;;;;;;0.73;0.60;;;23.60;99.90;;;;;;5060672;28;20286;-83
2022/07/16 10:03:53;;;;;;;3.88;0.90;;;23.20;99.90;;;;;;5044153;28;20194;-84
2022/07/16 10:06:19;;;;;;;2.47;0.77;;;22.80;99.90;;;;;;5052683;28;20215;-83
2022/07/16 10:08:46;;;;;;;2.25;0.85;;;22.10;99.90;;;;;;5035128;28;20206;-83
2022/07/16 10:11:12;;;;;;;5.03;1.08;;;21.90;99.90;;;;;;5052952;28;20203;-84
2022/07/16 10:13:42;;;;;;;4.82;0.80;;;22.20;99.90;;;;;;5052761;28;20190;-84
2022/07/16 10:16:08;;;;;;;2.22;0.70;;;22.60;99.90;;;;;;5034808;28;20177;-81
2022/07/16 10:18:42;;;;;;;0.70;0.70;;;23.00;99.90;;;;;;5034993;28;20175;-84
2022/07/16 10:21:12;;;;;;;2.83;0.52;;;23.40;99.90;;;;;;5034842;28;20206;-83
2022/07/16 10:23:41;;;;;;;1.25;0.50;;;23.70;99.90;;;;;;5034826;28;20715;-84
2022/07/16 10:26:12;;;;;;;1.58;0.65;;;24.00;99.90;;;;;;5052581;28;20182;-83
2022/07/16 10:28:54;;;;;;;1.00;0.60;;;23.80;99.90;;;;;;5052767;28;20168;-86
2022/07/16 10:31:41;;;;;;;2.58;0.70;;;23.70;99.90;;;;;;5052790;28;20179;-85
2022/07/16 10:34:13;;;;;;;1.05;0.63;;;23.60;99.90;;;;;;5035128;28;20167;-84
2022/07/16 10:36:52;;;;;;;2.78;0.77;;;23.50;99.90;;;;;;5052951;28;20175;-84
2022/07/16 10:39:18;;;;;;;1.30;0.73;;;23.50;99.90;;;;;;5052769;28;20193;-83
2022/07/16 10:41:48;;;;;;;1.00;0.50;;;23.50;99.90;;;;;;5052829;28;20651;-87
2022/07/16 10:44:14;;;;;;;1.00;0.60;;;23.20;99.90;;;;;;5034850;28;20178;-85
2022/07/16 10:46:53;;;;;;;0.50;0.50;;;23.10;99.90;;;;;;5052806;28;20637;-83
2022/07/16 10:49:20;;;;;;;1.52;0.70;;;23.00;99.90;;;;;;5038242;28;20174;-83
2022/07/16 10:52:03;;;;;;;1.23;0.65;;;23.00;99.90;;;;;;5056977;28;20221;-83
2022/07/16 10:54:58;;;;;;;5.63;0.60;;;23.50;99.90;;;;;;5065214;28;20177;-83
2022/07/16 10:57:40;;;;;;;5.47;0.80;;;24.00;99.90;;;;;;5059372;28;20163;-83
2022/07/16 11:00:07;;;;;;;1.15;0.60;;;24.30;99.90;;;;;;5074099;28;20283;-86
2022/07/16 11:02:40;;;;;;;0.98;0.70;;;24.70;99.90;;;;;;5060514;28;20224;-84
2022/07/16 11:05:07;;;;;;;2.08;0.85;;;24.70;99.90;;;;;;5057031;28;20186;-84
2022/07/16 11:07:35;;;;;;;0.80;0.60;;;24.80;99.90;;;;;;5039169;28;20167;-84
2022/07/16 11:10:01;;;;;;;2.95;0.70;;;24.60;99.90;;;;;;5038385;28;20613;-83
2022/07/16 11:12:31;;;;;;;0.80;0.77;;;24.60;99.90;;;;;;5038737;28;20167;-84
2022/07/16 11:14:59;;;;;;;0.95;0.63;;;24.90;99.90;;;;;;5056942;28;20179;-83
2022/07/16 11:17:27;;;;;;;1.05;0.50;;;25.20;99.90;;;;;;5056637;28;20163;-84
2022/07/16 11:19:55;;;;;;;0.60;0.60;;;25.10;99.90;;;;;;5056228;28;20283;-84
2022/07/16 11:22:24;;;;;;;7.35;0.70;;;24.70;99.90;;;;;;5056383;28;20174;-84
2022/07/16 11:24:53;;;;;;;0.75;0.50;;;24.40;99.90;;;;;;5056321;28;20167;-86
2022/07/16 11:27:34;;;;;;;4.65;0.70;;;24.50;99.90;;;;;;5056586;28;20254;-82
2022/07/16 11:30:04;;;;;;;1.67;0.90;;;24.50;99.90;;;;;;5056081;28;20194;-85
2022/07/16 11:32:31;;;;;;;0.98;0.85;;;24.60;99.90;;;;;;5037963;28;20174;-84
2022/07/16 11:35:04;;;;;;;3.15;0.57;;;24.70;99.90;;;;;;5038320;28;20171;-87
2022/07/16 11:37:30;;;;;;;1.20;0.75;;;24.20;99.90;;;;;;5038503;28;20640;-88
2022/07/16 11:39:59;;;;;;;1.02;0.82;;;24.10;99.90;;;;;;5056861;28;20218;-87
2022/07/16 11:42:25;;;;;;;0.95;0.80;;;24.40;99.90;;;;;;5057093;28;20178;-87
2022/07/16 11:44:52;;;;;;;1.88;0.60;;;24.70;99.90;;;;;;5057824;28;20174;-84
2022/07/16 11:47:17;;;;;;;0.60;0.60;;;24.80;99.90;;;;;;5056826;28;20167;-84
2022/07/16 11:49:44;;;;;;;0.80;0.80;;;24.60;99.90;;;;;;5039008;28;20195;-86
2022/07/16 11:52:14;;;;;;;5.05;0.60;;;24.30;99.90;;;;;;5056052;28;20160;-82
2022/07/16 11:54:41;;;;;;;1.13;0.68;;;24.30;99.90;;;;;;5056188;28;20604;-86
2022/07/16 11:57:09;;;;;;;0.93;0.82;;;24.50;99.90;;;;;;5056199;28;20266;-85
2022/07/16 12:00:01;;;;;;;4.65;0.80;;;24.40;99.90;;;;;;5055559;28;20242;-80
2022/07/16 12:02:42;;;;;;;0.65;0.65;;;24.30;99.90;;;;;;5056268;28;20190;-83
2022/07/16 12:05:07;;;;;;;2.70;0.85;;;24.30;99.90;;;;;;5038674;28;20290;-83
2022/07/16 12:07:33;;;;;;;1.98;1.00;;;24.30;99.90;;;;;;5056141;28;20596;-83
2022/07/16 12:10:03;;;;;;;1.63;0.80;;;24.30;99.90;;;;;;5059193;28;20195;-87
2022/07/16 12:12:34;;;;;;;1.02;0.70;;;24.70;99.90;;;;;;5057300;28;20194;-81
2022/07/16 12:15:01;;;;;;;7.63;0.90;;;24.70;99.90;;;;;;5056227;28;20272;-83
2022/07/16 12:17:33;;;;;;;1.40;1.30;;;24.50;99.90;;;;;;5055926;28;20624;-81
2022/07/16 12:20:04;;;;;;;2.17;0.98;;;24.30;99.90;;;;;;5040447;28;20219;-82
2022/07/16 12:22:52;;;;;;;0.93;0.82;;;24.50;99.90;;;;;;5061477;28;20251;-82
2022/07/16 12:25:37;;;;;;;0.73;0.73;;;24.90;99.90;;;;;;5044812;28;20183;-85
2022/07/16 12:28:08;;;;;;;3.47;1.02;;;24.70;99.90;;;;;;5059924;28;20174;-85
2022/07/16 12:30:50;;;;;;;1.00;0.90;;;24.60;99.90;;;;;;5058835;28;20587;-87
2022/07/16 12:33:20;;;;;;;1.20;0.90;;;24.40;99.80;;;;;;5059449;28;20186;-86
2022/07/16 12:35:48;;;;;;;1.20;1.05;;;24.50;99.90;;;;;;5060971;28;20155;-87
2022/07/16 12:38:41;;;;;;;2.50;1.00;;;24.80;99.90;;;;;;5060626;28;20166;-84
2022/07/16 12:41:11;;;;;;;0.90;0.90;;;24.70;99.90;;;;;;5056074;28;20195;-82
2022/07/16 12:43:38;;;;;;;2.45;1.10;;;24.30;99.80;;;;;;5038909;28;20202;-86
2022/07/16 12:46:04;;;;;;;0.82;0.80;;;24.30;99.90;;;;;;5042135;28;20166;-83
2022/07/16 12:48:30;;;;;;;6.15;1.15;;;24.50;99.90;;;;;;5039962;28;20588;-87
2022/07/16 12:50:56;;;;;;;1.10;0.90;;;24.70;99.90;;;;;;5038279;28;20183;-84
2022/07/16 12:53:22;;;;;;;1.75;1.15;;;24.70;99.90;;;;;;5037940;28;20178;-85
2022/07/16 12:58:48;;;;;;;2.85;1.00;;;25.20;99.90;;;;;;5062219;28;20189;-87